sensor_id;sensor_type;location;lat;lon;timestamp;P1;durP1;ratioP1;P2;durP2;ratioP2
36315;SDS011;22343;50.820;2.666;2024-02-21T00:01:43;8.30;;;5.40;;
36315;SDS011;22343;50.820;2.666;2024-02-21T00:04:29;7.43;;;5.00;;
36315;SDS011;22343;50.820;2.666;2024-02-21T00:07:16;7.33;;;5.23;;
36315;SDS011;22343;50.820;2.666;2024-02-21T00:10:02;5.27;;;4.67;;
36315;SDS011;22343;50.820;2.666;2024-02-21T00:12:48;7.73;;;5.43;;
36315;SDS011;22343;50.820;2.666;2024-02-21T00:15:34;7.47;;;4.77;;
36315;SDS011;22343;50.820;2.666;2024-02-21T00:18:20;9.10;;;4.73;;
36315;SDS011;22343;50.820;2.666;2024-02-21T00:21:05;6.63;;;4.67;;
36315;SDS011;22343;50.820;2.666;2024-02-21T00:23:51;6.43;;;4.33;;
36315;SDS011;22343;50.820;2.666;2024-02-21T00:26:37;7.47;;;4.73;;
36315;SDS011;22343;50.820;2.666;2024-02-21T00:29:23;7.10;;;4.77;;
36315;SDS011;22343;50.820;2.666;2024-02-21T00:32:12;8.00;;;4.83;;
36315;SDS011;22343;50.820;2.666;2024-02-21T00:34:57;8.73;;;4.83;;
36315;SDS011;22343;50.820;2.666;2024-02-21T00:37:45;8.50;;;5.30;;
36315;SDS011;22343;50.820;2.666;2024-02-21T00:40:31;7.03;;;5.10;;
36315;SDS011;22343;50.820;2.666;2024-02-21T00:43:18;8.07;;;5.10;;
36315;SDS011;22343;50.820;2.666;2024-02-21T00:46:05;6.80;;;4.93;;
36315;SDS011;22343;50.820;2.666;2024-02-21T00:48:51;8.63;;;5.10;;
36315;SDS011;22343;50.820;2.666;2024-02-21T00:51:37;8.57;;;5.03;;
36315;SDS011;22343;50.820;2.666;2024-02-21T00:54:22;7.97;;;5.50;;
36315;SDS011;22343;50.820;2.666;2024-02-21T00:57:07;10.40;;;6.10;;
36315;SDS011;22343;50.820;2.666;2024-02-21T00:59:54;8.40;;;5.77;;
36315;SDS011;22343;50.820;2.666;2024-02-21T01:02:40;8.83;;;6.13;;
36315;SDS011;22343;50.820;2.666;2024-02-21T01:05:27;7.83;;;5.80;;
36315;SDS011;22343;50.820;2.666;2024-02-21T01:08:13;8.87;;;6.13;;
36315;SDS011;22343;50.820;2.666;2024-02-21T01:10:58;9.97;;;6.30;;
36315;SDS011;22343;50.820;2.666;2024-02-21T01:13:45;8.50;;;6.50;;
36315;SDS011;22343;50.820;2.666;2024-02-21T01:16:30;8.33;;;6.40;;
36315;SDS011;22343;50.820;2.666;2024-02-21T01:19:14;11.23;;;6.80;;
36315;SDS011;22343;50.820;2.666;2024-02-21T01:22:01;10.23;;;6.70;;
36315;SDS011;22343;50.820;2.666;2024-02-21T01:24:46;10.37;;;6.93;;
36315;SDS011;22343;50.820;2.666;2024-02-21T01:27:32;12.50;;;7.10;;
36315;SDS011;22343;50.820;2.666;2024-02-21T01:30:16;11.90;;;7.57;;
36315;SDS011;22343;50.820;2.666;2024-02-21T01:33:01;11.10;;;7.37;;
36315;SDS011;22343;50.820;2.666;2024-02-21T01:35:46;10.37;;;7.10;;
36315;SDS011;22343;50.820;2.666;2024-02-21T01:38:32;13.20;;;7.53;;
36315;SDS011;22343;50.820;2.666;2024-02-21T01:41:17;11.33;;;7.77;;
36315;SDS011;22343;50.820;2.666;2024-02-21T01:44:04;13.83;;;7.57;;
36315;SDS011;22343;50.820;2.666;2024-02-21T01:46:51;12.53;;;7.73;;
36315;SDS011;22343;50.820;2.666;2024-02-21T01:49:40;10.20;;;7.70;;
36315;SDS011;22343;50.820;2.666;2024-02-21T01:52:50;9.60;;;7.50;;
36315;SDS011;22343;50.820;2.666;2024-02-21T01:55:37;9.53;;;7.57;;
36315;SDS011;22343;50.820;2.666;2024-02-21T01:58:23;13.93;;;7.70;;
36315;SDS011;22343;50.820;2.666;2024-02-21T02:01:08;12.27;;;7.90;;
36315;SDS011;22343;50.820;2.666;2024-02-21T02:03:57;10.70;;;7.63;;
36315;SDS011;22343;50.820;2.666;2024-02-21T02:06:47;12.50;;;7.73;;
36315;SDS011;22343;50.820;2.666;2024-02-21T02:09:32;9.40;;;7.30;;
36315;SDS011;22343;50.820;2.666;2024-02-21T02:12:18;13.40;;;7.30;;
36315;SDS011;22343;50.820;2.666;2024-02-21T02:15:04;10.97;;;7.83;;
36315;SDS011;22343;50.820;2.666;2024-02-21T02:17:52;9.57;;;7.50;;
36315;SDS011;22343;50.820;2.666;2024-02-21T02:20:39;10.57;;;7.50;;
36315;SDS011;22343;50.820;2.666;2024-02-21T02:26:28;10.67;;;7.73;;
36315;SDS011;22343;50.820;2.666;2024-02-21T02:29:13;9.33;;;7.67;;
36315;SDS011;22343;50.820;2.666;2024-02-21T02:31:58;10.33;;;7.63;;
36315;SDS011;22343;50.820;2.666;2024-02-21T02:34:42;10.63;;;7.50;;
36315;SDS011;22343;50.820;2.666;2024-02-21T02:37:26;10.87;;;8.00;;
36315;SDS011;22343;50.820;2.666;2024-02-21T02:40:12;14.03;;;9.10;;
36315;SDS011;22343;50.820;2.666;2024-02-21T02:42:58;11.57;;;8.13;;
36315;SDS011;22343;50.820;2.666;2024-02-21T02:45:42;10.77;;;8.13;;
36315;SDS011;22343;50.820;2.666;2024-02-21T02:48:26;12.63;;;7.53;;
36315;SDS011;22343;50.820;2.666;2024-02-21T02:51:14;11.60;;;8.33;;
36315;SDS011;22343;50.820;2.666;2024-02-21T02:53:59;12.70;;;8.27;;
36315;SDS011;22343;50.820;2.666;2024-02-21T02:56:46;13.37;;;9.23;;
36315;SDS011;22343;50.820;2.666;2024-02-21T02:59:32;12.83;;;8.50;;
36315;SDS011;22343;50.820;2.666;2024-02-21T03:02:18;13.27;;;9.07;;
36315;SDS011;22343;50.820;2.666;2024-02-21T03:05:03;12.27;;;8.97;;
36315;SDS011;22343;50.820;2.666;2024-02-21T03:07:58;14.33;;;9.10;;
36315;SDS011;22343;50.820;2.666;2024-02-21T03:10:44;12.40;;;8.47;;
36315;SDS011;22343;50.820;2.666;2024-02-21T03:13:31;12.30;;;8.60;;
36315;SDS011;22343;50.820;2.666;2024-02-21T03:16:17;12.67;;;9.23;;
36315;SDS011;22343;50.820;2.666;2024-02-21T03:19:04;12.23;;;9.10;;
36315;SDS011;22343;50.820;2.666;2024-02-21T03:21:50;14.90;;;9.40;;
36315;SDS011;22343;50.820;2.666;2024-02-21T03:24:35;13.33;;;9.83;;
36315;SDS011;22343;50.820;2.666;2024-02-21T03:27:21;13.67;;;9.47;;
36315;SDS011;22343;50.820;2.666;2024-02-21T03:30:13;13.87;;;9.90;;
36315;SDS011;22343;50.820;2.666;2024-02-21T03:32:57;18.03;;;9.97;;
36315;SDS011;22343;50.820;2.666;2024-02-21T03:35:43;15.70;;;10.30;;
36315;SDS011;22343;50.820;2.666;2024-02-21T03:38:28;13.30;;;10.43;;
36315;SDS011;22343;50.820;2.666;2024-02-21T03:41:15;14.77;;;10.80;;
36315;SDS011;22343;50.820;2.666;2024-02-21T03:44:02;16.03;;;10.37;;
36315;SDS011;22343;50.820;2.666;2024-02-21T03:46:48;16.03;;;10.80;;
36315;SDS011;22343;50.820;2.666;2024-02-21T03:49:34;15.03;;;10.70;;
36315;SDS011;22343;50.820;2.666;2024-02-21T03:52:20;15.70;;;11.17;;
36315;SDS011;22343;50.820;2.666;2024-02-21T03:55:06;17.97;;;11.10;;
36315;SDS011;22343;50.820;2.666;2024-02-21T03:57:51;16.80;;;10.87;;
36315;SDS011;22343;50.820;2.666;2024-02-21T04:00:37;18.80;;;11.57;;
36315;SDS011;22343;50.820;2.666;2024-02-21T04:03:24;14.97;;;11.07;;
36315;SDS011;22343;50.820;2.666;2024-02-21T04:06:10;16.87;;;11.67;;
36315;SDS011;22343;50.820;2.666;2024-02-21T04:08:56;16.87;;;11.00;;
36315;SDS011;22343;50.820;2.666;2024-02-21T04:11:44;14.77;;;10.27;;
36315;SDS011;22343;50.820;2.666;2024-02-21T04:14:28;16.53;;;11.10;;
36315;SDS011;22343;50.820;2.666;2024-02-21T04:17:15;16.33;;;11.13;;
36315;SDS011;22343;50.820;2.666;2024-02-21T04:20:04;16.30;;;10.40;;
36315;SDS011;22343;50.820;2.666;2024-02-21T04:22:50;18.53;;;10.87;;
36315;SDS011;22343;50.820;2.666;2024-02-21T04:25:35;17.53;;;10.07;;
36315;SDS011;22343;50.820;2.666;2024-02-21T04:28:21;14.33;;;10.00;;
36315;SDS011;22343;50.820;2.666;2024-02-21T04:31:08;18.03;;;10.60;;
36315;SDS011;22343;50.820;2.666;2024-02-21T04:33:55;13.93;;;9.83;;
36315;SDS011;22343;50.820;2.666;2024-02-21T04:36:40;15.73;;;9.80;;
36315;SDS011;22343;50.820;2.666;2024-02-21T04:39:27;16.60;;;9.77;;
36315;SDS011;22343;50.820;2.666;2024-02-21T04:42:13;14.57;;;10.33;;
36315;SDS011;22343;50.820;2.666;2024-02-21T04:44:59;14.67;;;9.93;;
36315;SDS011;22343;50.820;2.666;2024-02-21T04:47:45;15.50;;;10.17;;
36315;SDS011;22343;50.820;2.666;2024-02-21T04:50:30;15.97;;;10.43;;
36315;SDS011;22343;50.820;2.666;2024-02-21T04:53:14;14.20;;;10.63;;
36315;SDS011;22343;50.820;2.666;2024-02-21T04:55:59;15.60;;;10.90;;
36315;SDS011;22343;50.820;2.666;2024-02-21T04:58:45;13.43;;;9.80;;
36315;SDS011;22343;50.820;2.666;2024-02-21T05:01:29;15.20;;;10.33;;
36315;SDS011;22343;50.820;2.666;2024-02-21T05:04:16;15.87;;;10.93;;
36315;SDS011;22343;50.820;2.666;2024-02-21T05:07:03;17.07;;;9.93;;
36315;SDS011;22343;50.820;2.666;2024-02-21T05:09:48;14.80;;;9.90;;
36315;SDS011;22343;50.820;2.666;2024-02-21T05:12:33;15.23;;;10.23;;
36315;SDS011;22343;50.820;2.666;2024-02-21T05:15:20;16.40;;;10.30;;
36315;SDS011;22343;50.820;2.666;2024-02-21T05:18:05;15.03;;;10.47;;
36315;SDS011;22343;50.820;2.666;2024-02-21T05:20:50;15.73;;;10.30;;
36315;SDS011;22343;50.820;2.666;2024-02-21T05:23:36;17.87;;;10.80;;
36315;SDS011;22343;50.820;2.666;2024-02-21T05:26:23;14.70;;;10.13;;
36315;SDS011;22343;50.820;2.666;2024-02-21T05:29:09;15.10;;;10.37;;
36315;SDS011;22343;50.820;2.666;2024-02-21T05:31:57;15.77;;;10.97;;
36315;SDS011;22343;50.820;2.666;2024-02-21T05:34:43;16.03;;;10.30;;
36315;SDS011;22343;50.820;2.666;2024-02-21T05:37:29;16.53;;;10.30;;
36315;SDS011;22343;50.820;2.666;2024-02-21T05:40:15;15.53;;;9.80;;
36315;SDS011;22343;50.820;2.666;2024-02-21T05:43:00;14.70;;;10.30;;
36315;SDS011;22343;50.820;2.666;2024-02-21T05:45:46;15.33;;;10.10;;
36315;SDS011;22343;50.820;2.666;2024-02-21T05:48:31;16.57;;;9.53;;
36315;SDS011;22343;50.820;2.666;2024-02-21T05:51:15;14.40;;;10.13;;
36315;SDS011;22343;50.820;2.666;2024-02-21T05:54:00;15.03;;;9.97;;
36315;SDS011;22343;50.820;2.666;2024-02-21T05:56:45;15.80;;;9.87;;
36315;SDS011;22343;50.820;2.666;2024-02-21T05:59:35;13.23;;;9.57;;
36315;SDS011;22343;50.820;2.666;2024-02-21T06:02:25;13.70;;;9.00;;
36315;SDS011;22343;50.820;2.666;2024-02-21T06:05:13;14.87;;;8.97;;
36315;SDS011;22343;50.820;2.666;2024-02-21T06:07:58;13.77;;;9.00;;
36315;SDS011;22343;50.820;2.666;2024-02-21T06:10:44;13.17;;;8.47;;
36315;SDS011;22343;50.820;2.666;2024-02-21T06:13:29;13.30;;;9.00;;
36315;SDS011;22343;50.820;2.666;2024-02-21T06:16:16;14.07;;;9.33;;
36315;SDS011;22343;50.820;2.666;2024-02-21T06:19:02;13.63;;;9.10;;
36315;SDS011;22343;50.820;2.666;2024-02-21T06:21:49;12.20;;;8.97;;
36315;SDS011;22343;50.820;2.666;2024-02-21T06:24:34;13.50;;;9.10;;
36315;SDS011;22343;50.820;2.666;2024-02-21T06:27:22;14.97;;;8.73;;
36315;SDS011;22343;50.820;2.666;2024-02-21T06:30:08;13.77;;;8.87;;
36315;SDS011;22343;50.820;2.666;2024-02-21T06:32:55;15.97;;;8.50;;
36315;SDS011;22343;50.820;2.666;2024-02-21T06:35:41;11.13;;;8.47;;
36315;SDS011;22343;50.820;2.666;2024-02-21T06:38:28;12.40;;;7.93;;
36315;SDS011;22343;50.820;2.666;2024-02-21T06:41:17;11.30;;;7.77;;
36315;SDS011;22343;50.820;2.666;2024-02-21T06:44:04;13.73;;;7.77;;
36315;SDS011;22343;50.820;2.666;2024-02-21T06:46:50;14.67;;;8.27;;
36315;SDS011;22343;50.820;2.666;2024-02-21T06:49:35;10.33;;;7.80;;
36315;SDS011;22343;50.820;2.666;2024-02-21T06:52:23;12.97;;;7.77;;
36315;SDS011;22343;50.820;2.666;2024-02-21T06:55:10;11.07;;;8.37;;
36315;SDS011;22343;50.820;2.666;2024-02-21T06:57:55;12.17;;;8.20;;
36315;SDS011;22343;50.820;2.666;2024-02-21T07:00:40;10.70;;;7.20;;
36315;SDS011;22343;50.820;2.666;2024-02-21T07:03:28;13.30;;;7.83;;
36315;SDS011;22343;50.820;2.666;2024-02-21T07:06:14;10.23;;;8.00;;
36315;SDS011;22343;50.820;2.666;2024-02-21T07:09:00;10.23;;;7.63;;
36315;SDS011;22343;50.820;2.666;2024-02-21T07:11:46;11.63;;;7.50;;
36315;SDS011;22343;50.820;2.666;2024-02-21T07:14:35;12.00;;;7.90;;
36315;SDS011;22343;50.820;2.666;2024-02-21T07:17:22;12.00;;;7.27;;
36315;SDS011;22343;50.820;2.666;2024-02-21T07:20:08;9.80;;;7.13;;
36315;SDS011;22343;50.820;2.666;2024-02-21T07:22:54;10.53;;;6.93;;
36315;SDS011;22343;50.820;2.666;2024-02-21T07:25:39;14.47;;;7.43;;
36315;SDS011;22343;50.820;2.666;2024-02-21T07:28:26;12.63;;;7.80;;
36315;SDS011;22343;50.820;2.666;2024-02-21T07:31:12;10.77;;;7.70;;
36315;SDS011;22343;50.820;2.666;2024-02-21T07:33:57;8.70;;;7.43;;
36315;SDS011;22343;50.820;2.666;2024-02-21T07:36:43;13.33;;;7.70;;
36315;SDS011;22343;50.820;2.666;2024-02-21T07:39:29;9.93;;;7.23;;
36315;SDS011;22343;50.820;2.666;2024-02-21T07:42:13;12.37;;;7.80;;
36315;SDS011;22343;50.820;2.666;2024-02-21T07:44:57;11.93;;;7.70;;
36315;SDS011;22343;50.820;2.666;2024-02-21T07:47:42;11.47;;;7.50;;
36315;SDS011;22343;50.820;2.666;2024-02-21T07:50:27;13.23;;;7.80;;
36315;SDS011;22343;50.820;2.666;2024-02-21T07:53:14;9.37;;;7.10;;
36315;SDS011;22343;50.820;2.666;2024-02-21T07:56:00;10.90;;;6.97;;
36315;SDS011;22343;50.820;2.666;2024-02-21T07:58:47;11.93;;;7.43;;
36315;SDS011;22343;50.820;2.666;2024-02-21T08:01:33;9.80;;;7.50;;
36315;SDS011;22343;50.820;2.666;2024-02-21T08:04:18;10.60;;;7.20;;
36315;SDS011;22343;50.820;2.666;2024-02-21T08:07:09;9.60;;;6.93;;
36315;SDS011;22343;50.820;2.666;2024-02-21T08:09:53;9.73;;;6.73;;
36315;SDS011;22343;50.820;2.666;2024-02-21T08:12:41;9.93;;;7.00;;
36315;SDS011;22343;50.820;2.666;2024-02-21T08:15:25;10.10;;;7.30;;
36315;SDS011;22343;50.820;2.666;2024-02-21T08:18:13;11.20;;;7.87;;
36315;SDS011;22343;50.820;2.666;2024-02-21T08:20:59;8.60;;;6.77;;
36315;SDS011;22343;50.820;2.666;2024-02-21T08:23:46;8.30;;;6.90;;
36315;SDS011;22343;50.820;2.666;2024-02-21T08:26:39;10.50;;;6.70;;
36315;SDS011;22343;50.820;2.666;2024-02-21T08:29:32;11.37;;;7.27;;
36315;SDS011;22343;50.820;2.666;2024-02-21T08:32:18;9.93;;;7.17;;
36315;SDS011;22343;50.820;2.666;2024-02-21T08:35:05;10.33;;;7.23;;
36315;SDS011;22343;50.820;2.666;2024-02-21T08:37:50;9.87;;;6.73;;
36315;SDS011;22343;50.820;2.666;2024-02-21T08:40:36;9.77;;;7.03;;
36315;SDS011;22343;50.820;2.666;2024-02-21T08:43:23;8.13;;;7.17;;
36315;SDS011;22343;50.820;2.666;2024-02-21T08:46:08;10.57;;;7.33;;
36315;SDS011;22343;50.820;2.666;2024-02-21T08:48:52;10.27;;;7.23;;
36315;SDS011;22343;50.820;2.666;2024-02-21T08:51:37;10.27;;;7.43;;
36315;SDS011;22343;50.820;2.666;2024-02-21T08:54:23;10.30;;;7.70;;
36315;SDS011;22343;50.820;2.666;2024-02-21T08:57:08;11.23;;;7.90;;
36315;SDS011;22343;50.820;2.666;2024-02-21T08:59:53;9.93;;;7.33;;
36315;SDS011;22343;50.820;2.666;2024-02-21T09:02:40;11.93;;;8.10;;
36315;SDS011;22343;50.820;2.666;2024-02-21T09:05:28;11.00;;;7.83;;
36315;SDS011;22343;50.820;2.666;2024-02-21T09:08:14;15.03;;;8.17;;
36315;SDS011;22343;50.820;2.666;2024-02-21T09:11:00;11.77;;;8.17;;
36315;SDS011;22343;50.820;2.666;2024-02-21T09:13:47;10.93;;;8.20;;
36315;SDS011;22343;50.820;2.666;2024-02-21T09:16:33;13.17;;;8.53;;
36315;SDS011;22343;50.820;2.666;2024-02-21T09:19:18;12.63;;;9.27;;
36315;SDS011;22343;50.820;2.666;2024-02-21T09:22:04;15.63;;;8.97;;
36315;SDS011;22343;50.820;2.666;2024-02-21T09:24:50;12.43;;;9.20;;
36315;SDS011;22343;50.820;2.666;2024-02-21T09:27:36;16.73;;;9.03;;
36315;SDS011;22343;50.820;2.666;2024-02-21T09:30:20;14.00;;;9.50;;
36315;SDS011;22343;50.820;2.666;2024-02-21T09:33:08;14.87;;;9.50;;
36315;SDS011;22343;50.820;2.666;2024-02-21T09:35:52;11.73;;;9.07;;
36315;SDS011;22343;50.820;2.666;2024-02-21T09:38:39;11.43;;;8.60;;
36315;SDS011;22343;50.820;2.666;2024-02-21T09:41:26;14.03;;;9.03;;
36315;SDS011;22343;50.820;2.666;2024-02-21T09:44:13;13.87;;;8.80;;
36315;SDS011;22343;50.820;2.666;2024-02-21T09:47:02;10.70;;;8.13;;
36315;SDS011;22343;50.820;2.666;2024-02-21T09:49:51;12.40;;;8.30;;
36315;SDS011;22343;50.820;2.666;2024-02-21T09:52:37;11.97;;;8.67;;
36315;SDS011;22343;50.820;2.666;2024-02-21T09:55:24;11.20;;;8.80;;
36315;SDS011;22343;50.820;2.666;2024-02-21T09:58:35;11.73;;;7.87;;
36315;SDS011;22343;50.820;2.666;2024-02-21T10:01:26;12.73;;;8.77;;
36315;SDS011;22343;50.820;2.666;2024-02-21T10:04:10;11.53;;;8.47;;
36315;SDS011;22343;50.820;2.666;2024-02-21T10:06:55;12.37;;;9.00;;
36315;SDS011;22343;50.820;2.666;2024-02-21T10:09:41;11.33;;;8.53;;
36315;SDS011;22343;50.820;2.666;2024-02-21T10:12:28;9.93;;;7.90;;
36315;SDS011;22343;50.820;2.666;2024-02-21T10:15:12;9.60;;;7.63;;
36315;SDS011;22343;50.820;2.666;2024-02-21T10:18:01;10.67;;;8.20;;
36315;SDS011;22343;50.820;2.666;2024-02-21T10:20:59;12.50;;;7.80;;
36315;SDS011;22343;50.820;2.666;2024-02-21T10:23:48;10.37;;;7.47;;
36315;SDS011;22343;50.820;2.666;2024-02-21T10:26:34;10.20;;;7.23;;
36315;SDS011;22343;50.820;2.666;2024-02-21T10:29:23;13.17;;;7.33;;
36315;SDS011;22343;50.820;2.666;2024-02-21T10:32:13;8.93;;;7.00;;
36315;SDS011;22343;50.820;2.666;2024-02-21T10:35:04;9.13;;;7.17;;
36315;SDS011;22343;50.820;2.666;2024-02-21T10:37:55;10.00;;;6.90;;
36315;SDS011;22343;50.820;2.666;2024-02-21T10:40:41;8.77;;;7.10;;
36315;SDS011;22343;50.820;2.666;2024-02-21T10:43:25;11.10;;;7.17;;
36315;SDS011;22343;50.820;2.666;2024-02-21T10:46:11;11.43;;;7.67;;
36315;SDS011;22343;50.820;2.666;2024-02-21T10:49:10;10.73;;;7.73;;
36315;SDS011;22343;50.820;2.666;2024-02-21T10:55:16;10.77;;;7.77;;
36315;SDS011;22343;50.820;2.666;2024-02-21T10:58:09;9.07;;;7.60;;
36315;SDS011;22343;50.820;2.666;2024-02-21T11:01:05;10.80;;;7.50;;
36315;SDS011;22343;50.820;2.666;2024-02-21T11:03:52;10.50;;;7.73;;
36315;SDS011;22343;50.820;2.666;2024-02-21T11:06:41;8.53;;;7.10;;
36315;SDS011;22343;50.820;2.666;2024-02-21T11:09:31;9.30;;;7.47;;
36315;SDS011;22343;50.820;2.666;2024-02-21T11:12:22;11.20;;;6.67;;
36315;SDS011;22343;50.820;2.666;2024-02-21T11:15:08;10.33;;;7.30;;
36315;SDS011;22343;50.820;2.666;2024-02-21T11:17:53;10.50;;;7.43;;
36315;SDS011;22343;50.820;2.666;2024-02-21T11:20:49;11.73;;;7.37;;
36315;SDS011;22343;50.820;2.666;2024-02-21T11:23:40;10.33;;;7.33;;
36315;SDS011;22343;50.820;2.666;2024-02-21T11:26:27;9.13;;;7.60;;
36315;SDS011;22343;50.820;2.666;2024-02-21T11:29:13;11.27;;;7.50;;
36315;SDS011;22343;50.820;2.666;2024-02-21T11:32:15;10.83;;;7.37;;
36315;SDS011;22343;50.820;2.666;2024-02-21T11:35:01;8.20;;;7.20;;
36315;SDS011;22343;50.820;2.666;2024-02-21T11:37:48;12.73;;;7.53;;
36315;SDS011;22343;50.820;2.666;2024-02-21T11:40:34;9.67;;;7.50;;
36315;SDS011;22343;50.820;2.666;2024-02-21T11:43:19;11.63;;;7.30;;
36315;SDS011;22343;50.820;2.666;2024-02-21T11:46:05;9.47;;;6.90;;
36315;SDS011;22343;50.820;2.666;2024-02-21T11:48:50;8.10;;;6.80;;
36315;SDS011;22343;50.820;2.666;2024-02-21T11:51:37;7.37;;;6.37;;
36315;SDS011;22343;50.820;2.666;2024-02-21T11:54:24;7.87;;;5.50;;
36315;SDS011;22343;50.820;2.666;2024-02-21T11:57:12;7.27;;;5.73;;
36315;SDS011;22343;50.820;2.666;2024-02-21T11:59:59;6.10;;;5.40;;
36315;SDS011;22343;50.820;2.666;2024-02-21T12:03:04;6.57;;;5.17;;
36315;SDS011;22343;50.820;2.666;2024-02-21T12:05:49;5.67;;;5.03;;
36315;SDS011;22343;50.820;2.666;2024-02-21T12:08:44;6.43;;;4.60;;
36315;SDS011;22343;50.820;2.666;2024-02-21T12:11:32;7.50;;;4.73;;
36315;SDS011;22343;50.820;2.666;2024-02-21T12:14:16;5.93;;;4.90;;
36315;SDS011;22343;50.820;2.666;2024-02-21T12:17:03;6.53;;;4.50;;
36315;SDS011;22343;50.820;2.666;2024-02-21T12:19:53;4.87;;;4.23;;
36315;SDS011;22343;50.820;2.666;2024-02-21T12:22:37;5.27;;;4.33;;
36315;SDS011;22343;50.820;2.666;2024-02-21T12:25:23;5.60;;;4.63;;
36315;SDS011;22343;50.820;2.666;2024-02-21T12:28:12;6.20;;;4.50;;
36315;SDS011;22343;50.820;2.666;2024-02-21T12:30:58;5.43;;;4.47;;
36315;SDS011;22343;50.820;2.666;2024-02-21T12:33:44;7.07;;;4.33;;
36315;SDS011;22343;50.820;2.666;2024-02-21T12:36:32;6.07;;;4.17;;
36315;SDS011;22343;50.820;2.666;2024-02-21T12:39:21;6.10;;;4.53;;
36315;SDS011;22343;50.820;2.666;2024-02-21T12:42:07;5.67;;;4.13;;
36315;SDS011;22343;50.820;2.666;2024-02-21T12:44:53;5.07;;;4.57;;
36315;SDS011;22343;50.820;2.666;2024-02-21T12:47:39;5.20;;;4.00;;
36315;SDS011;22343;50.820;2.666;2024-02-21T12:50:25;4.90;;;4.10;;
36315;SDS011;22343;50.820;2.666;2024-02-21T12:53:10;4.60;;;4.03;;
36315;SDS011;22343;50.820;2.666;2024-02-21T12:55:56;5.90;;;4.10;;
36315;SDS011;22343;50.820;2.666;2024-02-21T12:58:42;4.50;;;4.10;;
36315;SDS011;22343;50.820;2.666;2024-02-21T13:01:28;5.97;;;4.00;;
36315;SDS011;22343;50.820;2.666;2024-02-21T13:04:13;6.10;;;4.27;;
36315;SDS011;22343;50.820;2.666;2024-02-21T13:06:57;5.70;;;4.30;;
36315;SDS011;22343;50.820;2.666;2024-02-21T13:09:43;5.43;;;4.20;;
36315;SDS011;22343;50.820;2.666;2024-02-21T13:12:29;5.33;;;3.70;;
36315;SDS011;22343;50.820;2.666;2024-02-21T13:15:14;5.10;;;4.37;;
36315;SDS011;22343;50.820;2.666;2024-02-21T13:18:02;5.20;;;3.90;;
36315;SDS011;22343;50.820;2.666;2024-02-21T13:20:48;5.37;;;4.17;;
36315;SDS011;22343;50.820;2.666;2024-02-21T13:23:32;6.10;;;4.30;;
36315;SDS011;22343;50.820;2.666;2024-02-21T13:26:17;5.83;;;4.10;;
36315;SDS011;22343;50.820;2.666;2024-02-21T13:29:03;6.23;;;4.27;;
36315;SDS011;22343;50.820;2.666;2024-02-21T13:31:50;7.17;;;5.10;;
36315;SDS011;22343;50.820;2.666;2024-02-21T13:34:35;5.30;;;4.53;;
36315;SDS011;22343;50.820;2.666;2024-02-21T13:37:19;6.97;;;4.77;;
36315;SDS011;22343;50.820;2.666;2024-02-21T13:40:04;6.57;;;4.73;;
36315;SDS011;22343;50.820;2.666;2024-02-21T13:42:50;8.83;;;5.13;;
36315;SDS011;22343;50.820;2.666;2024-02-21T13:45:36;6.93;;;5.27;;
36315;SDS011;22343;50.820;2.666;2024-02-21T13:48:24;6.80;;;5.40;;
36315;SDS011;22343;50.820;2.666;2024-02-21T13:51:10;22.93;;;7.50;;
36315;SDS011;22343;50.820;2.666;2024-02-21T13:53:56;17.70;;;6.50;;
36315;SDS011;22343;50.820;2.666;2024-02-21T13:56:45;8.20;;;5.70;;
36315;SDS011;22343;50.820;2.666;2024-02-21T13:59:31;10.70;;;5.70;;
36315;SDS011;22343;50.820;2.666;2024-02-21T14:02:19;6.50;;;5.23;;
36315;SDS011;22343;50.820;2.666;2024-02-21T14:05:03;6.93;;;5.37;;
36315;SDS011;22343;50.820;2.666;2024-02-21T14:07:51;7.93;;;5.40;;
36315;SDS011;22343;50.820;2.666;2024-02-21T14:10:39;7.13;;;5.50;;
36315;SDS011;22343;50.820;2.666;2024-02-21T14:13:25;7.03;;;5.70;;
36315;SDS011;22343;50.820;2.666;2024-02-21T14:16:09;6.57;;;5.60;;
36315;SDS011;22343;50.820;2.666;2024-02-21T14:18:57;12.10;;;6.20;;
36315;SDS011;22343;50.820;2.666;2024-02-21T14:21:41;9.20;;;5.50;;
36315;SDS011;22343;50.820;2.666;2024-02-21T14:24:26;6.00;;;5.33;;
36315;SDS011;22343;50.820;2.666;2024-02-21T14:27:12;6.30;;;5.23;;
36315;SDS011;22343;50.820;2.666;2024-02-21T14:29:57;7.93;;;5.83;;
36315;SDS011;22343;50.820;2.666;2024-02-21T14:32:43;6.17;;;5.40;;
36315;SDS011;22343;50.820;2.666;2024-02-21T14:35:30;8.13;;;5.30;;
36315;SDS011;22343;50.820;2.666;2024-02-21T14:38:16;7.57;;;5.50;;
36315;SDS011;22343;50.820;2.666;2024-02-21T14:41:03;6.43;;;5.57;;
36315;SDS011;22343;50.820;2.666;2024-02-21T14:43:48;7.30;;;5.13;;
36315;SDS011;22343;50.820;2.666;2024-02-21T14:46:36;7.37;;;4.97;;
36315;SDS011;22343;50.820;2.666;2024-02-21T14:49:23;7.23;;;5.57;;
36315;SDS011;22343;50.820;2.666;2024-02-21T14:52:12;7.37;;;4.93;;
36315;SDS011;22343;50.820;2.666;2024-02-21T14:54:57;6.47;;;5.33;;
36315;SDS011;22343;50.820;2.666;2024-02-21T14:57:42;5.60;;;4.80;;
36315;SDS011;22343;50.820;2.666;2024-02-21T15:00:27;5.60;;;4.57;;
36315;SDS011;22343;50.820;2.666;2024-02-21T15:03:16;8.43;;;5.20;;
36315;SDS011;22343;50.820;2.666;2024-02-21T15:06:05;8.73;;;6.77;;
36315;SDS011;22343;50.820;2.666;2024-02-21T15:08:50;8.67;;;5.73;;
36315;SDS011;22343;50.820;2.666;2024-02-21T15:11:37;9.37;;;6.50;;
36315;SDS011;22343;50.820;2.666;2024-02-21T15:14:21;7.17;;;5.70;;
36315;SDS011;22343;50.820;2.666;2024-02-21T15:17:10;7.37;;;4.97;;
36315;SDS011;22343;50.820;2.666;2024-02-21T15:19:58;7.20;;;6.10;;
36315;SDS011;22343;50.820;2.666;2024-02-21T15:22:44;11.83;;;5.70;;
36315;SDS011;22343;50.820;2.666;2024-02-21T15:25:29;6.27;;;4.83;;
36315;SDS011;22343;50.820;2.666;2024-02-21T15:28:16;6.53;;;5.23;;
36315;SDS011;22343;50.820;2.666;2024-02-21T15:31:02;5.90;;;4.50;;
36315;SDS011;22343;50.820;2.666;2024-02-21T15:33:51;6.50;;;4.83;;
36315;SDS011;22343;50.820;2.666;2024-02-21T15:36:39;7.67;;;5.93;;
36315;SDS011;22343;50.820;2.666;2024-02-21T15:39:24;6.30;;;5.70;;
36315;SDS011;22343;50.820;2.666;2024-02-21T15:42:11;7.87;;;5.17;;
36315;SDS011;22343;50.820;2.666;2024-02-21T15:44:57;5.33;;;4.70;;
36315;SDS011;22343;50.820;2.666;2024-02-21T15:47:43;7.47;;;4.60;;
36315;SDS011;22343;50.820;2.666;2024-02-21T15:50:28;24.57;;;6.73;;
36315;SDS011;22343;50.820;2.666;2024-02-21T15:53:15;4.57;;;3.73;;
36315;SDS011;22343;50.820;2.666;2024-02-21T15:56:00;33.07;;;6.50;;
36315;SDS011;22343;50.820;2.666;2024-02-21T16:02:01;6.97;;;5.10;;
36315;SDS011;22343;50.820;2.666;2024-02-21T16:04:47;5.53;;;3.90;;
36315;SDS011;22343;50.820;2.666;2024-02-21T16:07:32;5.33;;;4.07;;
36315;SDS011;22343;50.820;2.666;2024-02-21T16:10:19;5.37;;;4.20;;
36315;SDS011;22343;50.820;2.666;2024-02-21T16:13:06;5.13;;;4.10;;
36315;SDS011;22343;50.820;2.666;2024-02-21T16:15:56;5.47;;;4.53;;
36315;SDS011;22343;50.820;2.666;2024-02-21T16:18:42;6.77;;;5.70;;
36315;SDS011;22343;50.820;2.666;2024-02-21T16:21:26;5.20;;;4.63;;
36315;SDS011;22343;50.820;2.666;2024-02-21T16:24:14;6.47;;;5.23;;
36315;SDS011;22343;50.820;2.666;2024-02-21T16:27:01;4.73;;;4.23;;
36315;SDS011;22343;50.820;2.666;2024-02-21T16:29:54;5.87;;;4.70;;
36315;SDS011;22343;50.820;2.666;2024-02-21T16:32:39;6.10;;;5.17;;
36315;SDS011;22343;50.820;2.666;2024-02-21T16:35:29;5.53;;;4.67;;
36315;SDS011;22343;50.820;2.666;2024-02-21T16:38:15;5.37;;;4.40;;
36315;SDS011;22343;50.820;2.666;2024-02-21T16:41:00;4.30;;;3.90;;
36315;SDS011;22343;50.820;2.666;2024-02-21T16:43:46;4.20;;;3.80;;